sensor_id;sensor_type;location;lat;lon;timestamp;temperature;humidity
431;DHT22;202;48.764;9.172;2023-05-10T00:05:58;16.80;80.80
431;DHT22;202;48.764;9.172;2023-05-10T00:08:48;16.80;81.50
431;DHT22;202;48.764;9.172;2023-05-10T00:11:22;16.80;80.80
431;DHT22;202;48.764;9.172;2023-05-10T01:46:20;16.10;74.70
431;DHT22;202;48.764;9.172;2023-05-10T01:49:07;16.00;74.20
431;DHT22;202;48.764;9.172;2023-05-10T01:52:04;15.90;76.60
431;DHT22;202;48.764;9.172;2023-05-10T03:18:50;15.80;75.30
431;DHT22;202;48.764;9.172;2023-05-10T03:21:25;15.80;74.60
431;DHT22;202;48.764;9.172;2023-05-10T03:23:59;15.90;74.50
431;DHT22;202;48.764;9.172;2023-05-10T03:26:27;15.90;72.90
431;DHT22;202;48.764;9.172;2023-05-10T03:28:55;15.90;72.90
431;DHT22;202;48.764;9.172;2023-05-10T03:31:31;16.00;71.80
431;DHT22;202;48.764;9.172;2023-05-10T04:35:55;15.50;73.20
431;DHT22;202;48.764;9.172;2023-05-10T04:42:01;15.50;74.60
431;DHT22;202;48.764;9.172;2023-05-10T14:52:13;18.80;33.40
431;DHT22;202;48.764;9.172;2023-05-10T14:55:09;18.70;33.50
431;DHT22;202;48.764;9.172;2023-05-10T15:01:37;18.70;33.00
431;DHT22;202;48.764;9.172;2023-05-10T15:10:38;18.90;34.50
431;DHT22;202;48.764;9.172;2023-05-10T15:14:18;18.90;32.10
431;DHT22;202;48.764;9.172;2023-05-10T15:20:03;18.90;35.50
431;DHT22;202;48.764;9.172;2023-05-10T15:22:37;18.90;34.00
431;DHT22;202;48.764;9.172;2023-05-10T15:25:08;18.90;35.10
431;DHT22;202;48.764;9.172;2023-05-10T15:27:38;18.90;35.50
431;DHT22;202;48.764;9.172;2023-05-10T15:30:06;19.00;35.00
431;DHT22;202;48.764;9.172;2023-05-10T15:32:33;19.00;34.20
431;DHT22;202;48.764;9.172;2023-05-10T15:35:00;19.00;34.30
431;DHT22;202;48.764;9.172;2023-05-10T15:37:28;19.00;32.40
431;DHT22;202;48.764;9.172;2023-05-10T15:39:59;19.00;33.50
431;DHT22;202;48.764;9.172;2023-05-10T15:42:31;19.00;33.00
431;DHT22;202;48.764;9.172;2023-05-10T15:45:00;18.90;32.00
431;DHT22;202;48.764;9.172;2023-05-10T15:47:29;18.80;32.80
431;DHT22;202;48.764;9.172;2023-05-10T15:49:56;18.80;32.50
431;DHT22;202;48.764;9.172;2023-05-10T15:52:23;18.80;31.90
431;DHT22;202;48.764;9.172;2023-05-10T15:54:50;18.80;32.00
431;DHT22;202;48.764;9.172;2023-05-10T15:57:18;18.80;32.60
431;DHT22;202;48.764;9.172;2023-05-10T15:59:45;18.80;31.40
431;DHT22;202;48.764;9.172;2023-05-10T16:02:12;18.80;31.50
431;DHT22;202;48.764;9.172;2023-05-10T16:04:39;18.80;31.60
431;DHT22;202;48.764;9.172;2023-05-10T16:07:06;18.90;32.70
431;DHT22;202;48.764;9.172;2023-05-10T16:09:33;18.80;33.10
431;DHT22;202;48.764;9.172;2023-05-10T16:12:00;18.80;34.00
431;DHT22;202;48.764;9.172;2023-05-10T16:14:29;18.70;31.30
431;DHT22;202;48.764;9.172;2023-05-10T16:16:56;18.80;31.30
431;DHT22;202;48.764;9.172;2023-05-10T16:19:23;18.80;31.30
431;DHT22;202;48.764;9.172;2023-05-10T16:21:50;18.60;31.20
431;DHT22;202;48.764;9.172;2023-05-10T16:24:16;18.60;31.50
431;DHT22;202;48.764;9.172;2023-05-10T16:26:44;18.60;31.20
431;DHT22;202;48.764;9.172;2023-05-10T16:29:11;18.50;31.10
431;DHT22;202;48.764;9.172;2023-05-10T16:31:40;18.60;31.20
431;DHT22;202;48.764;9.172;2023-05-10T16:34:07;18.60;31.10
431;DHT22;202;48.764;9.172;2023-05-10T16:36:33;18.60;30.60
431;DHT22;202;48.764;9.172;2023-05-10T16:39:00;18.50;31.10
431;DHT22;202;48.764;9.172;2023-05-10T16:41:28;18.60;31.40
431;DHT22;202;48.764;9.172;2023-05-10T16:43:58;18.60;31.20
431;DHT22;202;48.764;9.172;2023-05-10T16:46:25;18.60;31.20
431;DHT22;202;48.764;9.172;2023-05-10T16:48:53;18.60;31.20
431;DHT22;202;48.764;9.172;2023-05-10T16:51:20;18.60;31.20
431;DHT22;202;48.764;9.172;2023-05-10T16:53:47;18.50;32.10
431;DHT22;202;48.764;9.172;2023-05-10T16:56:14;18.50;32.80
431;DHT22;202;48.764;9.172;2023-05-10T16:58:42;18.50;32.00
431;DHT22;202;48.764;9.172;2023-05-10T17:01:09;18.50;31.10
431;DHT22;202;48.764;9.172;2023-05-10T17:03:36;18.50;31.10
431;DHT22;202;48.764;9.172;2023-05-10T17:06:06;18.40;32.80
431;DHT22;202;48.764;9.172;2023-05-10T17:08:34;18.30;32.50
431;DHT22;202;48.764;9.172;2023-05-10T17:11:01;18.30;33.00
431;DHT22;202;48.764;9.172;2023-05-10T17:13:28;18.30;32.80
431;DHT22;202;48.764;9.172;2023-05-10T17:15:55;18.30;32.90
431;DHT22;202;48.764;9.172;2023-05-10T17:18:22;18.30;32.90
431;DHT22;202;48.764;9.172;2023-05-10T17:20:51;18.30;34.60
431;DHT22;202;48.764;9.172;2023-05-10T17:23:19;18.30;34.10
431;DHT22;202;48.764;9.172;2023-05-10T17:25:46;18.20;33.90
431;DHT22;202;48.764;9.172;2023-05-10T17:28:13;18.20;35.00
431;DHT22;202;48.764;9.172;2023-05-10T17:30:40;18.30;35.10
431;DHT22;202;48.764;9.172;2023-05-10T17:33:06;18.30;36.00
431;DHT22;202;48.764;9.172;2023-05-10T17:35:34;18.30;36.90
431;DHT22;202;48.764;9.172;2023-05-10T17:38:01;18.10;37.60
431;DHT22;202;48.764;9.172;2023-05-10T17:40:29;17.90;38.20
431;DHT22;202;48.764;9.172;2023-05-10T17:42:56;17.80;38.00
431;DHT22;202;48.764;9.172;2023-05-10T17:45:23;17.80;38.20
431;DHT22;202;48.764;9.172;2023-05-10T17:47:50;17.70;38.40
431;DHT22;202;48.764;9.172;2023-05-10T17:50:18;17.60;38.70
431;DHT22;202;48.764;9.172;2023-05-10T17:52:45;17.50;39.70
431;DHT22;202;48.764;9.172;2023-05-10T17:55:19;17.30;40.30
431;DHT22;202;48.764;9.172;2023-05-10T17:57:54;17.30;40.30
431;DHT22;202;48.764;9.172;2023-05-10T18:00:33;17.40;40.00
431;DHT22;202;48.764;9.172;2023-05-10T18:03:11;17.30;38.80
431;DHT22;202;48.764;9.172;2023-05-10T18:06:02;17.20;39.80
431;DHT22;202;48.764;9.172;2023-05-10T18:09:00;17.30;40.30
431;DHT22;202;48.764;9.172;2023-05-10T18:12:15;17.30;39.00
431;DHT22;202;48.764;9.172;2023-05-10T18:15:13;17.40;39.20
431;DHT22;202;48.764;9.172;2023-05-10T18:17:57;17.30;38.50
431;DHT22;202;48.764;9.172;2023-05-10T18:20:59;17.30;39.00
431;DHT22;202;48.764;9.172;2023-05-10T18:23:30;17.40;38.10
431;DHT22;202;48.764;9.172;2023-05-10T18:26:23;17.30;38.00
431;DHT22;202;48.764;9.172;2023-05-10T18:29:15;17.20;38.00
431;DHT22;202;48.764;9.172;2023-05-10T18:35:05;17.10;40.10
431;DHT22;202;48.764;9.172;2023-05-10T18:38:02;16.80;40.30
431;DHT22;202;48.764;9.172;2023-05-10T18:41:02;16.80;41.70
431;DHT22;202;48.764;9.172;2023-05-10T18:43:51;16.80;42.90
431;DHT22;202;48.764;9.172;2023-05-10T18:46:26;16.70;44.10
431;DHT22;202;48.764;9.172;2023-05-10T18:49:03;16.80;44.80
431;DHT22;202;48.764;9.172;2023-05-10T18:51:46;16.60;45.50
431;DHT22;202;48.764;9.172;2023-05-10T18:54:19;16.50;45.80
431;DHT22;202;48.764;9.172;2023-05-10T18:57:16;16.50;46.50
431;DHT22;202;48.764;9.172;2023-05-10T19:00:11;16.40;46.40
431;DHT22;202;48.764;9.172;2023-05-10T19:02:50;16.40;46.70
431;DHT22;202;48.764;9.172;2023-05-10T19:05:47;16.40;46.80
431;DHT22;202;48.764;9.172;2023-05-10T19:12:22;16.40;47.70
431;DHT22;202;48.764;9.172;2023-05-10T19:18:12;16.40;48.40
431;DHT22;202;48.764;9.172;2023-05-10T19:20:49;16.20;49.20
431;DHT22;202;48.764;9.172;2023-05-10T19:23:21;16.20;49.20
431;DHT22;202;48.764;9.172;2023-05-10T19:25:52;16.10;49.10
431;DHT22;202;48.764;9.172;2023-05-10T19:28:50;16.00;50.30
431;DHT22;202;48.764;9.172;2023-05-10T19:31:32;16.00;50.30
431;DHT22;202;48.764;9.172;2023-05-10T19:34:26;15.80;51.80
431;DHT22;202;48.764;9.172;2023-05-10T19:43:34;15.50;53.40
431;DHT22;202;48.764;9.172;2023-05-10T19:46:52;15.50;53.60
431;DHT22;202;48.764;9.172;2023-05-10T19:49:51;15.50;53.60
431;DHT22;202;48.764;9.172;2023-05-10T19:52:18;15.50;54.00
431;DHT22;202;48.764;9.172;2023-05-10T19:54:47;15.70;53.60
431;DHT22;202;48.764;9.172;2023-05-10T19:57:42;15.70;52.70
431;DHT22;202;48.764;9.172;2023-05-10T20:00:14;15.80;52.50
431;DHT22;202;48.764;9.172;2023-05-10T20:02:46;15.90;51.90
431;DHT22;202;48.764;9.172;2023-05-10T20:05:20;16.00;51.20
431;DHT22;202;48.764;9.172;2023-05-10T20:08:18;16.00;50.60
431;DHT22;202;48.764;9.172;2023-05-10T20:11:17;16.00;50.20
431;DHT22;202;48.764;9.172;2023-05-10T20:13:46;16.10;49.20
431;DHT22;202;48.764;9.172;2023-05-10T20:16:26;16.10;49.10
431;DHT22;202;48.764;9.172;2023-05-10T20:18:59;16.10;49.10
431;DHT22;202;48.764;9.172;2023-05-10T20:21:26;16.20;48.50
431;DHT22;202;48.764;9.172;2023-05-10T20:24:31;16.10;49.10
431;DHT22;202;48.764;9.172;2023-05-10T20:27:12;16.10;48.40
431;DHT22;202;48.764;9.172;2023-05-10T20:29:56;16.00;48.20
431;DHT22;202;48.764;9.172;2023-05-10T20:39:08;15.90;48.90
431;DHT22;202;48.764;9.172;2023-05-10T20:42:01;16.00;49.00
431;DHT22;202;48.764;9.172;2023-05-10T20:44:44;15.90;48.90
431;DHT22;202;48.764;9.172;2023-05-10T20:47:21;16.00;48.40
431;DHT22;202;48.764;9.172;2023-05-10T20:52:35;15.80;48.30
431;DHT22;202;48.764;9.172;2023-05-10T20:55:05;15.80;48.80
431;DHT22;202;48.764;9.172;2023-05-10T20:57:32;15.80;48.80
431;DHT22;202;48.764;9.172;2023-05-10T20:59:59;15.80;48.30
431;DHT22;202;48.764;9.172;2023-05-10T21:02:26;15.80;48.80
431;DHT22;202;48.764;9.172;2023-05-10T21:04:53;15.90;48.90
431;DHT22;202;48.764;9.172;2023-05-10T21:07:20;15.90;48.90
431;DHT22;202;48.764;9.172;2023-05-10T21:09:47;15.60;49.10
431;DHT22;202;48.764;9.172;2023-05-10T21:12:16;15.60;49.40
431;DHT22;202;48.764;9.172;2023-05-10T21:15:12;15.60;49.50
431;DHT22;202;48.764;9.172;2023-05-10T21:17:45;15.70;49.30
431;DHT22;202;48.764;9.172;2023-05-10T21:20:19;15.40;50.00
431;DHT22;202;48.764;9.172;2023-05-10T21:22:54;15.20;51.20
431;DHT22;202;48.764;9.172;2023-05-10T21:25:21;15.10;52.20
431;DHT22;202;48.764;9.172;2023-05-10T21:27:50;15.10;52.10
431;DHT22;202;48.764;9.172;2023-05-10T21:30:17;15.20;51.40
431;DHT22;202;48.764;9.172;2023-05-10T21:32:45;15.10;51.80
431;DHT22;202;48.764;9.172;2023-05-10T21:35:12;15.10;52.20
431;DHT22;202;48.764;9.172;2023-05-10T21:37:40;15.00;52.40
431;DHT22;202;48.764;9.172;2023-05-10T21:40:08;15.00;52.80
431;DHT22;202;48.764;9.172;2023-05-10T21:42:35;15.20;52.00
431;DHT22;202;48.764;9.172;2023-05-10T21:45:05;15.30;51.60
431;DHT22;202;48.764;9.172;2023-05-10T21:47:33;15.40;51.90
431;DHT22;202;48.764;9.172;2023-05-10T21:50:00;15.40;51.20
431;DHT22;202;48.764;9.172;2023-05-10T21:52:26;15.60;50.30
431;DHT22;202;48.764;9.172;2023-05-10T21:54:53;15.60;49.40
431;DHT22;202;48.764;9.172;2023-05-10T21:57:20;15.60;49.10
431;DHT22;202;48.764;9.172;2023-05-10T21:59:47;15.50;49.80
431;DHT22;202;48.764;9.172;2023-05-10T22:02:16;15.30;50.10
431;DHT22;202;48.764;9.172;2023-05-10T22:04:43;15.40;50.00
431;DHT22;202;48.764;9.172;2023-05-10T22:07:10;15.50;50.20
431;DHT22;202;48.764;9.172;2023-05-10T22:09:36;15.30;50.80
431;DHT22;202;48.764;9.172;2023-05-10T22:12:04;15.50;50.60
431;DHT22;202;48.764;9.172;2023-05-10T22:14:31;15.70;49.70
431;DHT22;202;48.764;9.172;2023-05-10T22:16:58;15.70;48.80
431;DHT22;202;48.764;9.172;2023-05-10T22:19:29;15.70;48.80
431;DHT22;202;48.764;9.172;2023-05-10T22:21:56;15.70;48.80
431;DHT22;202;48.764;9.172;2023-05-10T22:24:23;15.80;48.80
431;DHT22;202;48.764;9.172;2023-05-10T22:26:52;15.70;48.80
431;DHT22;202;48.764;9.172;2023-05-10T22:29:19;15.70;48.80
431;DHT22;202;48.764;9.172;2023-05-10T22:31:47;15.80;48.80
431;DHT22;202;48.764;9.172;2023-05-10T22:34:14;15.80;48.70
431;DHT22;202;48.764;9.172;2023-05-10T22:36:50;15.80;48.20
431;DHT22;202;48.764;9.172;2023-05-10T22:39:17;15.90;48.00
431;DHT22;202;48.764;9.172;2023-05-10T22:41:44;15.70;47.70
431;DHT22;202;48.764;9.172;2023-05-10T22:44:11;15.70;48.20
431;DHT22;202;48.764;9.172;2023-05-10T22:46:40;15.80;48.10
431;DHT22;202;48.764;9.172;2023-05-10T22:49:09;15.80;48.00
431;DHT22;202;48.764;9.172;2023-05-10T22:51:37;15.70;47.80
431;DHT22;202;48.764;9.172;2023-05-10T22:54:12;15.70;47.60
431;DHT22;202;48.764;9.172;2023-05-10T22:56:42;15.70;47.80
431;DHT22;202;48.764;9.172;2023-05-10T22:59:14;15.50;48.50
431;DHT22;202;48.764;9.172;2023-05-10T23:01:42;15.60;48.70
431;DHT22;202;48.764;9.172;2023-05-10T23:04:12;15.60;48.70
431;DHT22;202;48.764;9.172;2023-05-10T23:06:49;15.30;48.40
431;DHT22;202;48.764;9.172;2023-05-10T23:09:24;15.40;48.50
431;DHT22;202;48.764;9.172;2023-05-10T23:17:00;15.30;48.90
431;DHT22;202;48.764;9.172;2023-05-10T23:19:27;15.10;50.10
431;DHT22;202;48.764;9.172;2023-05-10T23:21:54;15.10;50.20
431;DHT22;202;48.764;9.172;2023-05-10T23:24:23;15.20;50.20
431;DHT22;202;48.764;9.172;2023-05-10T23:26:54;15.20;49.70
431;DHT22;202;48.764;9.172;2023-05-10T23:42:36;15.40;49.30
431;DHT22;202;48.764;9.172;2023-05-10T23:45:42;15.50;49.20
431;DHT22;202;48.764;9.172;2023-05-10T23:48:37;15.50;48.60
431;DHT22;202;48.764;9.172;2023-05-10T23:51:10;15.50;48.90
431;DHT22;202;48.764;9.172;2023-05-10T23:57:00;15.50;48.90
